Racecast

Travis Wynn

Lincoln (S) (CA) · 12 · TCALCA D1SJS D1YOLO · Compare head to head

Athlete ratingi 98.0 2017 TF season
Best race 112.9 TF
Races 60
Seasons 4 2014 — 2017

RankedNation #105987·CA #13586·CA D1 #6395·SJS #1570·SJS D1 #1150·TCAL #149·Team #44 ?

Speed rating — all races

Cross Country

XC speed rating

2016 XC 101.8

Lincoln (S) (CA) · Grade 12

Date Meet Event Result Place Ratingi Difficultyi PR/SR Flags
2016-11-05 Calaveras County Fairgrounds 4828m 20:59.1 146th · 8th on team 102.3 +4.5% ★CR CSR
2016-10-22 Mt. San Antonio College 4715m 20:51 139th · 4th on team 100.9 +5.6% CSR
2016-10-19 Oak Grove Park 4828m 18:48 48th · 10th on team 108.8 +0.8% ★PR ★CR SR CSR RSR
2016-09-15 Eagal Lakes 5000m 21:26 44th · 10th on team 103.1 +4.7% CSR
2016-09-10 Golden Gate Park 4715m 18:40.5 168th · 7th on team 103.7 -2.3% ★PR ★CR SR CSR
2016-09-01 Eagal Lakes 3379m 13:58 10th · 1st on team 104.7 +6.7% ★PR ★CR SR CSR RSR
2016-08-26 Lodi Lake 5000m 20:38 105th · 11th on team 101.2 -0.7% SR CSR RSR
2016-08-24 Calaveras County Fairgrounds 4828m 23:49 45th · 15th on team 89.3 +4.5% SR CSR RSR

2015 XC 100.2

Lincoln (S) (CA) · Grade 11

Date Meet Event Result Place Ratingi Difficultyi PR/SR Flags
2015-11-07 Calaveras County Fairgrounds 4828m 22:35 156th · 4th on team 94.5 +4.5% CR CSR
2015-10-24 Mt. San Antonio College 4715m 20:38 161st · 3rd on team 102.1 +5.6% ★CR CSR
2015-10-21 Lodi Lake 5000m 20:20 48th · 9th on team 103.7 -0.7% ★CR CSR
2015-10-17 Willow Hills Reservoir Course 5000m 19:53.2 145th · 6th on team 108.1 +2.5% ★PR ★CR SR CSR RSR
2015-10-10 Granite Park 5000m 20:22 133rd · 9th on team 102.4 -1.7% PR ★CR SR CSR
2015-09-26 Elkhorn Golf Course 3218m 12:43 82nd · 5th on team 99.0 -3.4% ★CR SR CSR
2015-09-23 Eagal Lakes 5000m 21:03 31st · 8th on team 104.8 +4.7% PR ★CR SR CSR RSR
2015-09-19 Willow Hills Reservoir Course 5000m 21:08 16th · 2nd on team 102.5 +2.5% PR CR SR CSR RSR
2015-09-12 Golden Gate Park 4715m 19:15 48th · 2nd on team 99.7 -2.3% PR CR SR CSR RSR
2015-09-09 Oak Grove Park 4828m 20:58 43rd · 10th on team 98.3 +0.8% PR CR SR CSR
2015-08-28 Lodi Lake 5000m 21:25 134th · 9th on team 98.4 -0.7% PR CR SR CSR RSR
2015-08-26 Calaveras County Fairgrounds 4828m 23:47 22nd · 10th on team 89.4 +4.5% PR CR SR CSR RSR

2014 XC 89.3

Lincoln (S) (CA) · Grade 10

Date Meet Event Result Place Ratingi Difficultyi PR/SR Flags
2014-10-22 Lodi Lake 3218m 12:26 49th · 16th on team 100.7 -3.7% ★PR ★CR SR CSR RSR
2014-10-18 Willow Hills Reservoir Course 3400m 15:07.2 136th · 5th on team 94.3 +2.7% ★PR ★CR SR CSR RSR
2014-09-27 Elkhorn Golf Course 3218m 13:29 204th · 16th on team 93.0 -3.4% PR CR SR CSR RSR
2014-09-24 Eagal Lakes 3218m 18:41 70th · 19th on team 81.0 +15.0% ★CR CSR
2014-09-20 Golden Gate Park 4800m 15:39 113th · 13th on team 88.8 +0.6% ★PR ★CR SR CSR RSR
2014-09-10 Oak Grove Park 3218m 15:39 65th · 15th on team 85.7 +2.8% PR ★CR SR CSR RSR
2014-08-27 Calaveras County Fairgrounds 3218m 17:02.3 19th · 13th on team 81.8 +6.7% PR ★CR SR CSR RSR

Track & Field

TF speed rating

2017 TF 95.3

Lincoln (S) (CA) · Grade 12

Date Meet Event Result Place Ratingi Difficultyi PR/SR Flags
2017-05-12 TCAL Finals 400m 57.92 27th · 5th on team 0.0%
2017-04-27 Tracy vs. Lincoln 400m 59.19 5th · 3rd on team 0.0%
2017-04-27 Tracy vs. Lincoln 800m 2:46.79 8th · 5th on team 90.7 0.0%
2017-04-20 Tokay @ Lincoln 400m 56.04 3rd · 3rd on team +0.7% ★PR SR
2017-03-17 San Joaquin County Meet 400m 57.22 16th · 2nd on team 0.0%
2017-03-15 Lincoln Intrasquad Meet 400m 57.04 4th · 4th on team +0.7% SR
2017-03-15 Lincoln Intrasquad Meet 100m 13.44 7th · 7th on team +0.7% ★PR SR
2017-03-04 19th Annual Sierra-Tom Moore Relays 400m 58.5 18th · 1st on team -0.1% SR
2017-03-03 Pitman Distance Wars 800m 2:30.46 86th · 6th on team 99.9 -0.4% SR RSR

2016 TF 104.7

Lincoln (S) (CA) · Grade 11

Date Meet Event Result Place Ratingi Difficultyi PR/SR Flags
2016-05-05 St. Mary's @ Lincoln 800m 2:19.1 4th · 4th on team 108.9 +0.7%
2016-04-29 Sheldon Distance Carnival 800m 2:32.6 61st · 3rd on team 98.2 -0.7%
2016-04-28 TCAL Dual Meet: Tracy @ Lincoln 800m 2:28.4 3rd · 3rd on team 102.3 +0.7%
2016-04-07 Lincoln @ Lodi 1600m 5:19.86 7th · 3rd on team 107.3 +0.8% ★PR SR
2016-04-02 2016 Mustang Invitational 400m 58.19 32nd · 6th on team -0.1%
2016-03-19 Cordova Lancer Invitational 400m 56.99 16th · 1st on team -0.6%
2016-03-19 Cordova Lancer Invitational 800m 2:24.89 19th · 2nd on team 103.5 -0.6%
2016-03-12 Port City Invitational 1600m 5:21.83 43rd · 4th on team 106.3 -0.1% PR SR RSR
2016-03-12 Port City Invitational 800m 2:17.3 22nd · 4th on team 110.9 -0.1% SR RSR
2016-03-04 Pitman Distance Wars 800m 2:30.3 73rd · 5th on team 100.0 -0.4% SR RSR
2016-02-27 Capital Classic Relays 400m 56.87 14th · 1st on team +0.4% PR SR

2015 TF 102.2

Lincoln (S) (CA) · Grade 10

Date Meet Event Result Place Ratingi Difficultyi PR/SR Flags
2015-05-15 TCAL Finals 800m 2:34.99 33rd · 6th on team 97.0 0.0%
2015-05-07 Merrill West vs Lincoln 800m 2:50.26 6th · 2nd on team 89.2 +0.6%
2015-05-07 Merrill West vs Lincoln 300mh 52.54 4th · 2nd on team +0.6% ★PR SR
2015-05-01 Sheldon Distance Carnival 800m 2:24.1 38th · 2nd on team 104.2 -0.7%
2015-04-23 Tracy vs Lincoln 800m 2:20.2 1st · 1st on team 107.5 0.0%
2015-04-16 Lincoln vs Tokay 800m 2:24.9 4th · 3rd on team 105.1 +0.7%
2015-04-04 Delta Mustang Invitational 800m 2:28.75 20th · 3rd on team 101.5 -0.1%
2015-04-02 Lodi vs. Lincoln 800m 2:15.2 3rd · 1st on team 112.9 +0.7% ★PR ★R SR RSR
2015-03-21 Depth Charge 800m 2:21.16 4th · 1st on team 107.6 +0.6% PR R SR RSR
2015-03-14 Port City Invitational 800m 2:38.22 33rd · 3rd on team 95.2 -0.1% PR SR RSR

2014 TF 98.4

Lincoln (S) (CA) · Grade 9

Date Meet Event Result Place Ratingi Difficultyi PR/SR Flags
2014-03-15 Folsom Depth Charge 1600m 5:36.65 19th · 3rd on team 102.0 +0.6% PR R SR RSR
2014-03-07 Pitman Distance Wars 800m 2:39.03 82nd · 6th on team 95.0 +0.1% PR R SR RSR
2014-03-07 Pitman Distance Wars 1600m 5:48.22 109th · 11th on team 98.3 +0.1% PR R SR RSR